Sedgwick Reserve, California Weather observations

Data are for 10 minute period ending at time listed.
 Day   Time   Solar   Ave.   Ave.  Ave.  Vector  Max.   Baro.   Total    
  of    of     Rad.   Air    Rel.  Wind   Wind   Wind  Press.  Precip.   
Year   Day            Temp.  Hum.  Speed  Dir.   Gust                    
2014   (PST)  Kw/m2    F      %     mph   deg.    mph    mb.     in.     
-------------------------------------------------------------------------
 354    9:50   0.28   54.6    84    0.6    64     1.7   979.7    0.00 
 354   10:00   0.32   56.3    78    1.0    89     2.3   979.7    0.00 
 354   10:10   0.29   57.3    74    0.8   152     2.3   979.7    0.00 
 354   10:20   0.37   57.3    76    1.1   189     3.4   979.6    0.00 
 354   10:30   0.26   58.0    74    0.2   164     1.6   979.7    0.00 
 354   10:40   0.27   58.5    74    0.6    88     1.8   979.6    0.00 
 354   10:50   0.34   58.8    74    1.6    75     3.1   979.6    0.00 
 354   11:00   0.43   59.8    74    1.9   132     4.2   979.7    0.00 
 354   11:10   0.35   59.9    73    3.1    72     4.9   979.7    0.00 
 354   11:20   0.34   60.0    74    4.5   260     6.9   979.7    0.00 
 354   11:30   0.35   60.1    74    3.9   232     7.2   979.6    0.00 
 354   11:40   0.43   62.3    71    2.6   257     6.4   979.4    0.00 
 354   11:50   0.33   62.0    71    6.1   240    10.2   979.2    0.00 
 354   12:00   0.29   61.8    73    6.0   239    10.0   979.0    0.00 
 354   12:10   0.22   61.4    74    6.4   246    11.6   978.9    0.00 
 354   12:20   0.18   61.1    75    6.9   252    10.6   978.8    0.00 
 354   12:30   0.15   60.7    77    5.4   255     9.6   978.6    0.00 
 354   12:40   0.34   61.0    77    5.6   267    10.7   978.5    0.00 
 354   12:50   0.45   61.8    76    4.7   280     8.6   978.2    0.00 
 354   13:00   0.38   62.5    75    5.2   258     9.7   978.0    0.00 
 354   13:10   0.31   63.1    73    5.5   269     9.3   977.8    0.00 
 354   13:20   0.22   62.0    76    8.8   252    13.1   977.7    0.00 
 354   13:30   0.19   61.3    77    8.5   269    14.2   977.7    0.00 
 354   13:40   0.15   60.7    79    9.5   278    15.4   977.7    0.00 
 354   13:50   0.12   60.5    80    8.9   280    14.9   977.7    0.00 
 354   14:00   0.13   60.4    81    7.2   284    14.1   977.5    0.00 
 354   14:10   0.12   60.3    81    8.9   283    14.2   977.4    0.00 
 354   14:20   0.17   60.7    80    8.4   281    14.4   977.2    0.00 
 354   14:30   0.31   61.3    77    8.4   277    13.2   977.2    0.00 
 354   14:40   0.33   62.8    74    9.3   269    13.9   977.0    0.00 
 354   14:50   0.29   63.0    72    8.9   273    13.8   977.0    0.00 
 354   15:00   0.28   63.4    72    8.6   264    14.4   977.0    0.00 
 354   15:10   0.23   63.3    73    8.9   267    14.9   977.3    0.00 
 354   15:20   0.23   63.2    73   11.2   284    18.9   977.8    0.00 
 354   15:30   0.18   62.8    74   11.3   281    19.1   978.0    0.00 
 354   15:40   0.11   62.3    76    7.5   284    12.5   977.9    0.00 
 354   15:50   0.10   61.8    76   11.0   291    19.3   978.0    0.00 
 354   16:00   0.08   61.2    78    8.2   286    14.2   977.7    0.00 
 354   16:10   0.08   61.0    79    9.4   296    16.1   977.7    0.00 
 354   16:20   0.07   60.7    81    9.3   287    17.2   977.7    0.00 
 354   16:30   0.04   60.1    82   10.3   279    16.4   978.0    0.00 
 354   16:40   0.01   59.3    85   11.2   278    18.2   978.0    0.00 
 354   16:50   0.01   58.9    86    9.2   278    15.6   977.8    0.00 
 354   17:00   0.00   58.4    88    8.8   281    15.4   977.8    0.00 
 354   17:10   0.00   58.0    89    8.3   280    13.3   977.8    0.00 
 354   17:20   0.00   57.7    90    8.9   280    15.0   978.0    0.00 
 354   17:30   0.00   57.5    91    9.5   281    15.9   978.1    0.00 
 354   17:40   0.00   57.5    91    8.4   288    13.6   978.2    0.00 
 354   17:50   0.00   57.5    92    9.1   284    15.8   978.2    0.00 
 354   18:00   0.00   57.4    92    8.8   286    13.7   978.2    0.00 
 354   18:10   0.00   57.5    92    9.5   285    14.5   978.2    0.00 
 354   18:20   0.00   57.4    92    8.3   281    13.5   978.2    0.00 
 354   18:30   0.00   57.1    92    8.5   288    13.2   978.2    0.00 
 354   18:40   0.00   56.8    93    8.1   293    12.7   978.3    0.00 
 354   18:50   0.00   56.6    93    7.8   300    11.4   978.5    0.00 
 354   19:00   0.00   56.4    94    8.4   292    15.4   978.7    0.00 
 354   19:10   0.00   56.4    94   10.1   287    15.3   979.0    0.00 
 354   19:20   0.00   56.4    94   11.5   295    18.6   978.9    0.00 
 354   19:30   0.00   56.5    94   10.4   301    17.5   978.9    0.00 
 354   19:40   0.00   56.4    93    7.9   294    13.0   978.8    0.00 
 354   19:50   0.00   56.5    92    8.3   291    13.1   978.7    0.00 
 354   20:00   0.00   56.4    92    9.5   282    15.1   978.7    0.00 
 354   20:10   0.00   56.1    92    9.2   278    14.6   978.7    0.00 
 354   20:20   0.00   55.8    93    8.9   287    15.0   978.7    0.00 
 354   20:30   0.00   55.8    93    9.1   296    16.6   978.8    0.00 
 354   20:40   0.00   55.9    92    9.5   295    14.2   979.0    0.00 
 354   20:50   0.00   55.8    92    9.5   292    14.8   979.0    0.00 
 354   21:00   0.00   55.7    91    9.1   289    12.6   979.0    0.00 
 354   21:10   0.00   55.3    92    7.9   288    12.6   979.1    0.00 
 354   21:20   0.00   55.3    92    9.7   287    14.0   979.1    0.00 
 354   21:30   0.00   55.4    91   11.0   293    16.4   979.2    0.00 
 354   21:40   0.00   56.1    87    9.8   306    14.3   979.2    0.00 
 354   21:50   0.00   56.1    87    9.6   296    14.6   979.3    0.00 
 354   22:00   0.00   56.1    86    9.4   308    15.3   979.5    0.00 
 354   22:10   0.00   56.2    85   11.3   308    16.4   979.5    0.00 
 354   22:20   0.00   55.5    87    5.6   357     9.8   979.5    0.00 
 354   22:30   0.00   54.6    90    6.0   349    11.1   979.5    0.00 
 354   22:40   0.00   54.9    87    6.6   331    11.4   979.3    0.00 
 354   22:50   0.00   57.1    78    7.9   329    11.9   979.3    0.00 
 354   23:00   0.00   57.8    74    7.8   332    12.6   979.2    0.00 
 354   23:10   0.00   57.8    74    7.3   317    12.9   979.3    0.00 
 354   23:20   0.00   57.4    76   10.2   307    15.0   979.3    0.00 
 354   23:30   0.00   57.0    77    7.3   313    13.9   979.4    0.00 
 354   23:40   0.00   56.5    79    9.3   304    13.9   979.3    0.00 
 354   23:50   0.00   56.5    78   11.7   297    16.0   979.2    0.00 
 355    0:00   0.00   56.6    79   12.4   298    17.0   979.2    0.00 
 355    0:10   0.00   56.5    79   12.3   292    17.1   979.2    0.00 
 355    0:20   0.00   56.4    79   12.5   296    19.2   979.2    0.00 
 355    0:30   0.00   56.7    78   14.0   298    21.0   979.2    0.00 
 355    0:40   0.00   56.4    78   14.1   294    20.8   979.0    0.00 
 355    0:50   0.00   56.2    78   11.9   294    17.8   978.9    0.00 
 355    1:00   0.00   55.8    80    9.3   294    16.6   978.8    0.00 
 355    1:10   0.00   56.0    78   10.4   292    17.8   978.8    0.00 
 355    1:20   0.00   56.1    77   11.5   297    18.0   978.8    0.00 
 355    1:30   0.00   56.1    77   10.9   294    18.2   978.8    0.00 
 355    1:40   0.00   55.9    77   12.8   295    17.4   978.7    0.00 
 355    1:50   0.00   55.8    77    8.7   311    15.6   978.7    0.00 
 355    2:00   0.00   55.6    77    7.5   335    14.6   978.6    0.00 
 355    2:10   0.00   55.5    76    7.7   330    13.9   978.6    0.00 
 355    2:20   0.00   55.6    76    6.7   330    15.3   978.6    0.00 
 355    2:30   0.00   55.8    74    5.4   340    11.1   978.6    0.00 
 355    2:40   0.00   55.6    75    6.8   334    13.1   978.5    0.00 
 355    2:50   0.00   55.4    75    7.2   327    13.0   978.4    0.00 
 355    3:00   0.00   55.9    73    7.5   319    13.1   978.2    0.00 
 355    3:10   0.00   55.6    74    5.7   316    14.3   978.2    0.00 
 355    3:20   0.00   55.8    73    3.3   354     8.9   978.2    0.00 
 355    3:30   0.00   55.2    74    4.9   317    13.5   978.1    0.00 
 355    3:40   0.00   55.2    74    6.7   304    15.3   978.1    0.00 
 355    3:50   0.00   54.9    76    6.8   315    13.1   978.3    0.00 
 355    4:00   0.00   54.6    77    9.6   310    16.1   978.4    0.00 
 355    4:10   0.00   54.4    77    9.6   310    18.9   978.3    0.00 
 355    4:20   0.00   54.6    76   13.8   302    20.8   978.1    0.00 
 355    4:30   0.00   55.4    72   11.9   304    18.9   978.2    0.00 
 355    4:40   0.00   55.9    71   12.9   301    19.0   978.1    0.00 
 355    4:50   0.00   56.0    70    9.6   303    16.6   978.0    0.00 
 355    5:00   0.00   56.4    69    9.6   306    16.4   978.1    0.00 
 355    5:10   0.00   56.0    70   10.4   299    15.9   978.0    0.00 
 355    5:20   0.00   55.7    70    6.0   329    14.2   978.1    0.00 
 355    5:30   0.00   55.0    72    5.3     4     9.4   978.1    0.00 
 355    5:40   0.00   55.1    72    4.7   352     8.0   978.2    0.00 
 355    5:50   0.00   54.8    72    3.2   338     5.6   978.2    0.00 
 355    6:00   0.00   54.2    74    2.5    52     6.5   978.2    0.00 
 355    6:10   0.00   53.6    75    2.4   253     7.8   978.1    0.00 
 355    6:20   0.00   54.0    73    1.3    37     4.2   978.3    0.00 
 355    6:30   0.00   55.2    70    2.7   341     6.8   978.4    0.00 
 355    6:40   0.00   54.3    73    4.1   288     8.3   978.4    0.00 
 355    6:50   0.00   53.3    75    2.2   110     6.6   978.5    0.00 
 355    7:00   0.00   54.1    73    1.8   118     2.9   978.7    0.00 
 355    7:10   0.00   54.3    72    1.6    16     5.6   978.7    0.00 
 355    7:20   0.01   53.5    75    1.9    69     3.7   978.7    0.00 
 355    7:30   0.02   52.8    77    3.5   137     5.7   978.8    0.00 
 355    7:40   0.03   52.0    79    2.1   128     4.7   978.8    0.00 
 355    7:50   0.04   52.0    80    2.0   146     4.7   978.8    0.00 
 355    8:00   0.05   52.0    80    1.9   145     3.3   978.9    0.00 
 355    8:10   0.07   51.9    81    1.8    97     3.5   978.9    0.00 
 355    8:20   0.08   51.8    82    3.0   141     4.9   978.9    0.00 
 355    8:30   0.11   52.5    81    3.1   127     4.6   979.0    0.00 
 355    8:40   0.14   53.3    80    2.8   107     5.8   979.0    0.00 
 355    8:50   0.13   54.1    79    1.8   126     5.4   979.1    0.00 
 355    9:00   0.11   53.8    79    5.1   137     8.6   979.1    0.00 
 355    9:10   0.12   54.0    79    3.2   141     4.7   979.2    0.00 
 355    9:20   0.20   54.7    79    3.7   136     6.1   979.3    0.00 
 355    9:30   0.22   54.9    78    3.6   130     7.3   979.3    0.00 
 355    9:40   0.17   55.5    77    3.1   157     5.7   979.3    0.00 

Return to Sedgwick Reserve graphs page.


Western Regional Climate Center,wrcc@dri.edu